Time;durP1;ratioP1;P1;durP2;ratioP2;P2;SDS_P1;SDS_P2;PMS_P1;PMS_P2;Temp;Humidity;BMP_temperature;BMP_pressure;BME280_temperature;BME280_humidity;BME280_pressure;Samples;Min_cycle;Max_cycle;Signal;HPM_P1;HPM_P2
2020/12/09 00:04:46;;;;;;;61.55;31.12;;;;;;;-0.31;100.00;98775.50;4313590;80;43427;-73
2020/12/09 00:10:48;;;;;;;52.20;23.80;;;;;;;-0.26;100.00;98773.66;4300523;80;43758;-72
2020/12/09 00:16:51;;;;;;;44.08;19.48;;;;;;;-0.35;100.00;98784.25;4340323;80;43792;-74
2020/12/09 00:22:54;;;;;;;40.03;18.82;;;;;;;-0.31;100.00;98785.56;4342845;80;43696;-73
2020/12/09 00:28:57;;;;;;;36.45;17.37;;;;;;;-0.31;100.00;98792.67;4377873;80;44456;-73
2020/12/09 00:35:00;;;;;;;37.33;17.80;;;;;;;-0.40;100.00;98793.16;4351192;80;44463;-73
2020/12/09 00:41:02;;;;;;;37.35;17.05;;;;;;;-0.40;100.00;98795.80;4265452;81;44446;-73
2020/12/09 00:47:04;;;;;;;36.10;17.10;;;;;;;-0.43;100.00;98796.14;4314440;81;44452;-73
2020/12/09 00:53:07;;;;;;;39.55;18.07;;;;;;;-0.62;100.00;98813.16;4310202;81;44448;-72
2020/12/09 00:59:10;;;;;;;37.00;15.93;;;;;;;-0.73;100.00;98815.12;4283998;81;44518;-73
2020/12/09 01:05:14;;;;;;;34.05;16.10;;;;;;;-0.77;100.00;98799.27;4353261;80;44092;-73
2020/12/09 01:11:18;;;;;;;32.60;15.63;;;;;;;-0.88;100.00;98800.90;4378136;80;44095;-73
2020/12/09 01:17:20;;;;;;;34.58;15.00;;;;;;;-0.95;100.00;98795.45;4327920;80;44151;-72
2020/12/09 01:23:24;;;;;;;38.98;16.87;;;;;;;-0.91;100.00;98803.87;4355167;80;44431;-74
2020/12/09 01:29:26;;;;;;;34.10;15.75;;;;;;;-1.00;100.00;98801.69;4363015;80;44116;-73
2020/12/09 01:35:28;;;;;;;36.30;16.37;;;;;;;-0.88;100.00;98805.70;4317018;81;44759;-74
2020/12/09 01:41:30;;;;;;;36.73;16.48;;;;;;;-0.95;100.00;98802.05;4303067;81;44449;-74
2020/12/09 01:47:32;;;;;;;32.90;15.03;;;;;;;-0.95;100.00;98791.97;4367042;80;44080;-74
2020/12/09 01:53:35;;;;;;;32.28;15.32;;;;;;;-0.85;100.00;98796.13;4328100;80;44111;-74
2020/12/09 01:59:39;;;;;;;34.98;15.72;;;;;;;-0.88;100.00;98796.94;4322500;80;44092;-74
2020/12/09 02:05:42;;;;;;;34.80;15.93;;;;;;;-0.95;100.00;98792.81;4337406;80;44078;-74
2020/12/09 02:11:45;;;;;;;31.52;14.00;;;;;;;-0.96;100.00;98801.72;4336347;79;44128;-74
2020/12/09 02:17:47;;;;;;;37.00;17.23;;;;;;;-0.80;100.00;98796.11;4312977;81;44448;-74
2020/12/09 02:23:50;;;;;;;33.30;14.65;;;;;;;-1.04;100.00;98804.34;4281084;81;44077;-74
2020/12/09 02:29:52;;;;;;;33.55;15.40;;;;;;;-0.87;100.00;98799.91;4322736;81;44085;-73
2020/12/09 02:35:55;;;;;;;30.27;14.45;;;;;;;-0.89;100.00;98795.29;4323942;81;43769;-73
2020/12/09 02:41:57;;;;;;;30.65;14.30;;;;;;;-0.95;100.00;98799.41;4307979;81;44111;-73
2020/12/09 02:47:59;;;;;;;35.85;16.20;;;;;;;-1.09;100.00;98802.18;4326724;81;44465;-73
2020/12/09 02:54:01;;;;;;;29.18;14.20;;;;;;;-1.11;100.00;98804.16;4299334;81;43435;-73
2020/12/09 03:00:05;;;;;;;35.52;15.58;;;;;;;-1.17;100.00;98811.39;4311123;81;44086;-74
2020/12/09 03:06:07;;;;;;;28.20;13.85;;;;;;;-1.31;100.00;98802.27;4326910;81;43435;-73
2020/12/09 03:12:09;;;;;;;35.45;16.48;;;;;;;-1.21;100.00;98791.60;4313774;81;44452;-74
2020/12/09 03:18:11;;;;;;;36.35;15.35;;;;;;;-1.40;100.00;98790.88;4303098;81;44469;-74
2020/12/09 03:24:13;;;;;;;31.85;15.23;;;;;;;-1.39;100.00;98798.31;4367374;80;44116;-74
2020/12/09 03:30:15;;;;;;;31.37;13.88;;;;;;;-1.45;100.00;98792.67;4366087;80;44080;-74
2020/12/09 03:36:18;;;;;;;34.38;16.48;;;;;;;-1.47;100.00;98792.02;4349721;80;44081;-74
2020/12/09 03:42:19;;;;;;;34.70;15.28;;;;;;;-1.51;100.00;98803.87;4302897;80;44269;-74
2020/12/09 03:48:22;;;;;;;31.25;13.95;;;;;;;-1.45;100.00;98815.09;4244189;81;44093;-74
2020/12/09 03:54:25;;;;;;;32.75;15.25;;;;;;;-1.38;100.00;98815.28;4360297;80;44110;-74
2020/12/09 04:00:28;;;;;;;31.80;14.30;;;;;;;-1.39;100.00;98803.08;4312292;80;44142;-74
2020/12/09 04:06:30;;;;;;;30.05;14.23;;;;;;;-1.38;100.00;98808.69;4347561;80;43406;-74
2020/12/09 04:12:32;;;;;;;32.80;13.90;;;;;;;-1.37;100.00;98804.25;4304399;80;44106;-73
2020/12/09 04:18:34;;;;;;;31.55;13.30;;;;;;;-1.42;100.00;98812.13;4306742;80;44108;-73
2020/12/09 04:24:36;;;;;;;33.15;13.95;;;;;;;-1.45;100.00;98811.64;4243108;81;44080;-73
2020/12/09 04:30:38;;;;;;;31.65;14.28;;;;;;;-1.49;100.00;98814.25;4274583;81;44142;-74
2020/12/09 04:36:40;;;;;;;35.13;15.50;;;;;;;-1.58;100.00;98823.94;4287870;81;44330;-73
2020/12/09 04:43:02;;;;;;;36.60;14.90;;;;;;;-1.57;100.00;98822.95;4285215;81;44428;-74
2020/12/09 04:49:09;;;;;;;36.03;14.73;;;;;;;-1.66;100.00;98824.73;4289505;81;44517;-74
2020/12/09 04:55:15;;;;;;;39.92;15.65;;;;;;;-1.60;100.00;98821.96;4314938;80;44475;-74
2020/12/09 05:01:17;;;;;;;38.45;16.65;;;;;;;-1.60;100.00;98819.33;4387328;80;44423;-74
2020/12/09 05:07:23;;;;;;;34.23;14.10;;;;;;;-1.73;100.00;98816.61;4277292;81;44101;-73
2020/12/09 05:13:27;;;;;;;42.23;16.77;;;;;;;-1.82;100.00;98813.63;4288565;81;44527;-73
2020/12/09 05:19:29;;;;;;;37.70;15.40;;;;;;;-1.83;100.00;98806.66;4306961;81;44429;-73
2020/12/09 05:25:33;;;;;;;37.10;15.78;;;;;;;-1.69;100.00;98818.44;4349747;80;44451;-74
2020/12/09 05:31:38;;;;;;;34.23;14.60;;;;;;;-1.62;100.00;98813.36;4369402;80;44147;-73
2020/12/09 05:37:40;;;;;;;40.00;17.23;;;;;;;-1.73;100.00;98813.97;4320239;80;28587;-73
2020/12/09 05:43:44;;;;;;;40.83;16.95;;;;;;;-1.81;100.00;98813.95;4342758;80;44460;-73
2020/12/09 05:49:49;;;;;;;40.43;15.58;;;;;;;-1.78;100.00;98818.06;4274208;82;44492;-75
2020/12/09 05:55:55;;;;;;;40.53;16.87;;;;;;;-1.73;100.00;98824.52;4329367;80;28590;-76
2020/12/09 06:02:14;;;;;;;39.50;16.95;;;;;;;-1.87;100.00;98830.38;4268085;81;44446;-73
2020/12/09 06:08:49;;;;;;;40.15;16.70;;;;;;;-1.66;100.00;98829.17;4244968;81;44431;-73
2020/12/09 06:15:14;;;;;;;38.83;17.15;;;;;;;-1.63;100.00;98815.66;4306144;81;44544;-74
2020/12/09 06:21:17;;;;;;;37.75;15.28;;;;;;;-1.71;100.00;98825.20;4328119;81;28561;-74
2020/12/09 06:27:19;;;;;;;41.23;16.42;;;;;;;-1.54;100.00;98831.86;4334018;81;44460;-76
2020/12/09 06:33:38;;;;;;;41.30;15.53;;;;;;;-1.69;100.00;98839.05;4311579;81;44429;-75
2020/12/09 06:39:39;;;;;;;42.03;16.52;;;;;;;-1.65;100.00;98837.41;4311180;81;44478;-74
2020/12/09 06:45:47;;;;;;;41.13;16.52;;;;;;;-1.57;100.00;98842.22;4331297;81;44480;-74
2020/12/09 06:51:49;;;;;;;41.90;16.82;;;;;;;-1.53;100.00;98852.48;4330325;81;44499;-75
2020/12/09 06:57:52;;;;;;;37.63;15.78;;;;;;;-1.50;100.00;98858.75;4330934;81;44425;-74
2020/12/09 07:03:54;;;;;;;43.30;17.50;;;;;;;-1.46;100.00;98867.50;4311216;81;44473;-75
2020/12/09 07:09:57;;;;;;;40.85;15.88;;;;;;;-1.53;100.00;98868.30;4328258;81;44457;-74
2020/12/09 07:15:59;;;;;;;39.42;16.95;;;;;;;-1.46;100.00;98867.50;4311135;81;44425;-74
2020/12/09 07:22:03;;;;;;;36.88;15.78;;;;;;;-1.59;100.00;98860.52;4328661;81;44442;-74
2020/12/09 07:28:05;;;;;;;40.80;15.88;;;;;;;-1.56;100.00;98864.16;4315209;81;44496;-74
2020/12/09 07:34:07;;;;;;;40.80;16.90;;;;;;;-1.52;100.00;98856.77;4332636;81;44440;-75
2020/12/09 07:40:24;;;;;;;41.60;17.48;;;;;;;-1.52;100.00;98850.98;4314013;81;44452;-74
2020/12/09 07:46:25;;;;;;;44.13;18.15;;;;;;;-1.50;100.00;98858.27;4319493;81;43606;-75
2020/12/09 07:52:36;;;;;;;40.37;17.17;;;;;;;-1.65;100.00;98875.16;4316580;81;28621;-75
2020/12/09 07:58:38;;;;;;;42.20;17.75;;;;;;;-1.47;100.00;98868.97;4307913;81;44472;-75
2020/12/09 08:04:40;;;;;;;38.55;15.90;;;;;;;-1.57;100.00;98882.28;4336848;81;44444;-76
2020/12/09 08:10:45;;;;;;;45.25;17.27;;;;;;;-1.44;100.00;98867.36;4320573;81;43744;-75
2020/12/09 08:16:48;;;;;;;38.60;16.95;;;;;;;-1.47;100.00;98872.92;4305484;81;44454;-75
2020/12/09 08:23:02;;;;;;;38.20;17.25;;;;;;;-1.39;100.00;98882.71;4319155;81;44467;-75
2020/12/09 08:29:05;;;;;;;35.88;14.75;;;;;;;-1.27;100.00;98881.44;4321796;81;44095;-74
2020/12/09 08:35:10;;;;;;;41.53;16.95;;;;;;;-1.17;100.00;98891.38;4324057;81;44478;-75
2020/12/09 08:41:29;;;;;;;45.15;17.35;;;;;;;-1.35;100.00;98886.20;4329677;81;28579;-75
2020/12/09 08:47:34;;;;;;;41.45;17.12;;;;;;;-1.17;100.00;98884.78;4327689;81;44428;-75
2020/12/09 08:53:37;;;;;;;35.70;15.40;;;;;;;-1.35;100.00;98887.52;4332135;81;28541;-75
2020/12/09 08:59:39;;;;;;;43.70;18.10;;;;;;;-1.30;100.00;98890.49;4330291;81;43707;-75
2020/12/09 09:05:42;;;;;;;41.10;17.48;;;;;;;-1.24;100.00;98892.18;4343334;81;44456;-75
2020/12/09 09:11:44;;;;;;;35.03;14.20;;;;;;;-1.12;100.00;98891.71;4330382;81;44436;-76
2020/12/09 09:17:48;;;;;;;43.42;16.67;;;;;;;-1.00;100.00;98894.06;4321297;81;44492;-75
2020/12/09 09:23:50;;;;;;;41.18;17.15;;;;;;;-0.95;100.00;98898.38;4326757;81;44450;-76
2020/12/09 09:29:53;;;;;;;43.33;16.85;;;;;;;-1.15;100.00;98892.04;4303553;81;43661;-75
2020/12/09 09:35:55;;;;;;;33.65;14.50;;;;;;;-1.05;100.00;98909.56;4310293;81;44113;-78
2020/12/09 09:41:58;;;;;;;33.83;14.25;;;;;;;-1.16;100.00;98906.70;4308790;81;44087;-76
2020/12/09 09:48:02;;;;;;;41.10;17.75;;;;;;;-1.00;100.00;98904.62;4311375;81;44746;-75
2020/12/09 09:54:07;;;;;;;40.75;18.35;;;;;;;-1.10;100.00;98911.83;4297171;81;44479;-76
2020/12/09 10:00:09;;;;;;;44.00;17.62;;;;;;;-1.06;100.00;98910.04;4324622;81;42912;-77
2020/12/09 10:06:15;;;;;;;40.55;17.30;;;;;;;-0.81;100.00;98904.02;4326429;81;28617;-75
2020/12/09 10:12:20;;;;;;;41.40;17.70;;;;;;;-0.88;100.00;98910.44;4309471;81;44425;-74
2020/12/09 10:18:27;;;;;;;42.60;17.70;;;;;;;-0.97;100.00;98899.05;4311649;81;42934;-76
2020/12/09 10:24:33;;;;;;;;;;;;;;;-0.72;100.00;98897.78;4310797;81;28560;-76
2020/12/09 10:30:46;;;;;;;41.30;17.73;;;;;;;-0.90;100.00;98880.75;4296321;81;44422;-75
2020/12/09 10:36:52;;;;;;;41.73;17.35;;;;;;;-0.87;100.00;98873.34;4317791;81;44435;-75
2020/12/09 10:42:55;;;;;;;45.83;18.65;;;;;;;-0.88;100.00;98874.33;4305189;81;43775;-76
2020/12/09 10:48:59;;;;;;;42.95;17.15;;;;;;;-0.57;100.00;98880.81;4329081;81;43238;-75
2020/12/09 10:55:03;;;;;;;48.10;19.37;;;;;;;-0.63;100.00;98882.29;4315456;81;43774;-75
2020/12/09 11:01:05;;;;;;;49.15;20.23;;;;;;;-0.72;100.00;98868.73;4312394;81;44432;-74
2020/12/09 11:07:11;;;;;;;50.83;20.88;;;;;;;-0.70;100.00;98858.84;4313412;81;43639;-75
2020/12/09 11:13:13;;;;;;;50.15;20.40;;;;;;;-0.69;100.00;98866.27;4322239;81;28573;-74
2020/12/09 11:19:15;;;;;;;48.52;19.30;;;;;;;-0.61;100.00;98849.94;4331071;81;43782;-78
2020/12/09 11:25:17;;;;;;;45.70;20.35;;;;;;;-0.78;100.00;98850.41;4320150;81;43758;-79
2020/12/09 11:31:23;;;;;;;50.25;20.97;;;;;;;-0.73;100.00;98832.28;4306434;81;44428;-81
2020/12/09 11:37:27;;;;;;;47.33;20.88;;;;;;;-0.61;100.00;98830.13;4321848;81;43738;-81
2020/12/09 11:43:29;;;;;;;51.45;20.65;;;;;;;-0.73;100.00;98828.33;4335545;81;44451;-81
2020/12/09 11:49:31;;;;;;;47.33;20.92;;;;;;;-0.60;100.00;98834.93;4318305;81;43771;-79
2020/12/09 11:55:34;;;;;;;44.30;19.32;;;;;;;-0.66;100.00;98824.53;4327832;81;43775;-78
2020/12/09 12:01:36;;;;;;;50.95;21.25;;;;;;;-0.43;100.00;98823.36;4289894;81;44450;-79
2020/12/09 12:07:39;;;;;;;54.48;21.05;;;;;;;-0.54;100.00;98825.53;4308477;81;44152;-78
2020/12/09 12:13:41;;;;;;;43.13;18.92;;;;;;;-0.80;100.00;98815.44;4329104;81;43782;-79
2020/12/09 12:19:43;;;;;;;45.12;18.57;;;;;;;-0.82;100.00;98825.81;4318364;81;43794;-76
2020/12/09 12:25:46;;;;;;;46.88;20.05;;;;;;;-0.82;100.00;98819.22;4319454;81;43766;-78
2020/12/09 12:31:48;;;;;;;48.13;20.70;;;;;;;-0.90;100.00;98834.55;4331125;81;43745;-77
2020/12/09 12:37:50;;;;;;;40.75;17.87;;;;;;;-1.01;100.00;98831.71;4317702;81;43324;-77
2020/12/09 12:43:52;;;;;;;52.85;21.80;;;;;;;-0.85;100.00;98825.16;4322513;81;44046;-79
2020/12/09 12:49:55;;;;;;;50.52;19.90;;;;;;;-0.96;100.00;98829.43;4309240;81;44081;-78
2020/12/09 12:55:57;;;;;;;44.90;20.02;;;;;;;-0.98;100.00;98826.13;4314541;81;43734;-78
2020/12/09 13:02:00;;;;;;;45.88;18.90;;;;;;;-0.91;100.00;98823.67;4304436;81;43734;-79
2020/12/09 13:08:02;;;;;;;47.20;18.73;;;;;;;-1.19;100.00;98820.80;4330746;81;28592;-77
2020/12/09 13:14:04;;;;;;;45.48;18.40;;;;;;;-0.95;100.00;98835.03;4309628;81;43782;-78
2020/12/09 13:20:10;;;;;;;42.85;18.30;;;;;;;-1.14;100.00;98835.64;4309880;81;43732;-78
2020/12/09 13:26:12;;;;;;;47.48;19.23;;;;;;;-1.29;100.00;98818.28;4325684;81;28556;-77
2020/12/09 13:32:14;;;;;;;46.48;19.20;;;;;;;-1.20;100.00;98821.77;4334200;81;43806;-79
2020/12/09 13:38:16;;;;;;;43.75;19.20;;;;;;;-1.35;100.00;98825.53;4306384;81;43764;-78
2020/12/09 13:44:18;;;;;;;48.10;20.85;;;;;;;-1.37;100.00;98825.34;4332499;81;43755;-79
2020/12/09 13:50:21;;;;;;;46.73;19.80;;;;;;;-1.24;100.00;98817.80;4320465;81;43797;-81
2020/12/09 13:56:29;;;;;;;48.78;21.05;;;;;;;-1.28;100.00;98823.89;4312639;81;44484;-80
2020/12/09 14:02:31;;;;;;;43.63;18.25;;;;;;;-1.37;100.00;98826.67;4314026;81;43669;-80
2020/12/09 14:08:36;;;;;;;48.50;19.32;;;;;;;-1.51;100.00;98847.39;4324658;81;28627;-80
2020/12/09 14:14:39;;;;;;;53.63;21.40;;;;;;;-1.58;100.00;98834.48;4331064;81;43991;-79
2020/12/09 14:20:43;;;;;;;48.25;20.35;;;;;;;-1.53;100.00;98845.38;4304856;81;43871;-77
2020/12/09 14:26:45;;;;;;;52.13;19.85;;;;;;;-1.44;100.00;98843.11;4325853;81;43801;-79
2020/12/09 14:32:47;;;;;;;37.45;16.73;;;;;;;-1.50;100.00;98836.33;4368486;80;44426;-79
2020/12/09 14:38:50;;;;;;;45.30;19.00;;;;;;;-1.37;100.00;98839.86;4346156;81;43747;-80
2020/12/09 14:44:54;;;;;;;43.63;19.23;;;;;;;-1.35;100.00;98834.77;4336561;81;43756;-80
2020/12/09 14:50:56;;;;;;;44.60;19.15;;;;;;;-1.52;100.00;98831.71;4343056;81;43762;-81
2020/12/09 14:56:58;;;;;;;46.88;19.15;;;;;;;-1.52;100.00;98833.84;4350684;81;43756;-79
2020/12/09 15:03:03;;;;;;;47.05;19.90;;;;;;;-1.57;100.00;98838.77;4318828;81;43734;-83
2020/12/09 15:09:05;;;;;;;50.08;19.57;;;;;;;-1.35;100.00;98840.52;4318171;81;43770;-81
2020/12/09 15:15:07;;;;;;;43.23;18.02;;;;;;;-1.37;100.00;98847.26;4353951;81;43642;-81
2020/12/09 15:21:10;;;;;;;41.65;16.90;;;;;;;-1.31;100.00;98842.68;4339506;81;44456;-78
2020/12/09 15:27:12;;;;;;;47.10;19.00;;;;;;;-1.42;100.00;98825.83;4356590;81;43758;-79
2020/12/09 15:33:14;;;;;;;44.85;18.75;;;;;;;-1.60;100.00;98819.33;4315797;81;43790;-79
2020/12/09 15:39:16;;;;;;;45.08;19.45;;;;;;;-1.58;100.00;98827.39;4326886;81;43829;-81
2020/12/09 15:45:18;;;;;;;41.33;18.90;;;;;;;-1.57;100.00;98838.27;4342826;81;44503;-81
2020/12/09 15:51:21;;;;;;;51.48;20.82;;;;;;;-1.51;100.00;98828.93;4315712;81;43598;-81
2020/12/09 15:57:24;;;;;;;51.42;21.68;;;;;;;-1.59;100.00;98833.65;4328395;81;43829;-78
2020/12/09 16:03:26;;;;;;;53.00;21.33;;;;;;;-1.62;100.00;98831.81;4336823;81;44045;-79
2020/12/09 16:09:29;;;;;;;53.40;20.37;;;;;;;-1.65;100.00;98832.14;4342297;81;44015;-79
2020/12/09 16:15:31;;;;;;;48.52;19.15;;;;;;;-1.65;100.00;98830.82;4330939;81;43736;-79
2020/12/09 16:21:33;;;;;;;53.98;20.95;;;;;;;-1.65;100.00;98833.45;4338316;80;44081;-79
2020/12/09 16:27:38;;;;;;;46.15;19.60;;;;;;;-1.74;100.00;98843.95;4331166;81;43774;-78
2020/12/09 16:33:44;;;;;;;49.30;19.05;;;;;;;-1.74;100.00;98847.91;4341306;81;28645;-81
2020/12/09 16:39:45;;;;;;;56.28;22.70;;;;;;;-1.66;100.00;98839.23;4338063;81;44105;-81
2020/12/09 16:45:47;;;;;;;52.80;20.32;;;;;;;-1.74;100.00;98836.05;4339448;81;44152;-79
2020/12/09 16:51:49;;;;;;;48.35;19.42;;;;;;;-1.79;100.00;98847.56;4336562;81;43735;-79
2020/12/09 16:57:51;;;;;;;44.80;19.35;;;;;;;-1.75;100.00;98850.20;4310509;81;43777;-79
2020/12/09 17:03:54;;;;;;;51.25;19.90;;;;;;;-1.79;100.00;98848.88;4345414;81;43579;-79
2020/12/09 17:09:56;;;;;;;46.45;18.07;;;;;;;-1.78;100.00;98855.80;4356594;80;43753;-80
2020/12/09 17:15:58;;;;;;;49.05;19.05;;;;;;;-1.93;100.00;98850.75;4360268;81;43985;-81
2020/12/09 17:22:00;;;;;;;53.33;21.48;;;;;;;-1.75;100.00;98847.57;4313732;81;44090;-77
2020/12/09 17:28:02;;;;;;;53.65;20.43;;;;;;;-1.76;100.00;98845.11;4330901;81;44101;-80
2020/12/09 17:34:05;;;;;;;55.48;21.07;;;;;;;-1.87;100.00;98837.80;4350922;81;44100;-78
2020/12/09 17:40:07;;;;;;;51.75;21.40;;;;;;;-1.88;100.00;98830.05;4317856;81;43557;-74
2020/12/09 17:46:15;;;;;;;50.90;20.48;;;;;;;-1.96;100.00;98822.41;4374022;81;28545;-76
2020/12/09 17:52:19;;;;;;;57.33;21.80;;;;;;;-1.82;100.00;98823.66;4319582;81;44105;-77
2020/12/09 17:58:21;;;;;;;56.00;21.50;;;;;;;-1.92;100.00;98815.03;4355096;80;44143;-77
2020/12/09 18:04:24;;;;;;;55.75;20.43;;;;;;;-2.01;100.00;98812.01;4339559;80;44078;-77
2020/12/09 18:10:26;;;;;;;54.18;21.07;;;;;;;-2.00;100.00;98811.86;4341243;81;44290;-76
2020/12/09 18:16:28;;;;;;;51.68;20.97;;;;;;;-1.96;100.00;98811.87;4354591;80;44180;-77
2020/12/09 18:22:32;;;;;;;57.67;22.25;;;;;;;-1.90;100.00;98814.38;4360477;79;44257;-77
2020/12/09 18:28:35;;;;;;;59.48;22.15;;;;;;;-1.96;100.00;98802.66;4303112;81;44079;-76
2020/12/09 18:34:38;;;;;;;55.73;21.35;;;;;;;-1.90;100.00;98816.20;4332156;80;44155;-78
2020/12/09 18:40:40;;;;;;;55.05;20.30;;;;;;;-1.69;100.00;98817.96;4364222;80;44112;-81
2020/12/09 18:46:45;;;;;;;54.15;21.33;;;;;;;-1.67;100.00;98819.61;4313766;80;44124;-83
2020/12/09 18:52:47;;;;;;;58.63;22.30;;;;;;;-1.74;100.00;98821.55;4366394;80;44156;-82
2020/12/09 18:58:51;;;;;;;60.55;23.90;;;;;;;-1.78;100.00;98825.97;4342108;80;44140;-81
2020/12/09 19:04:53;;;;;;;62.00;24.00;;;;;;;-1.82;100.00;98821.53;4298239;81;42883;-81
2020/12/09 19:10:56;;;;;;;56.75;21.73;;;;;;;-1.86;100.00;98817.05;4272511;82;44140;-78
2020/12/09 19:16:59;;;;;;;49.03;20.68;;;;;;;-1.78;100.00;98805.72;4192684;82;44440;-82
2020/12/09 19:23:01;;;;;;;59.48;22.70;;;;;;;-1.88;100.00;98805.81;4225730;82;44119;-79
2020/12/09 19:29:03;;;;;;;49.80;20.97;;;;;;;-1.89;100.00;98807.31;4261264;82;44430;-78
2020/12/09 19:35:06;;;;;;;67.17;24.07;;;;;;;-1.94;100.00;98799.03;4243874;82;43802;-83
2020/12/09 19:41:12;;;;;;;61.83;23.92;;;;;;;-1.88;100.00;98803.19;4243017;82;43721;-83
2020/12/09 19:47:14;;;;;;;;;;;;;;;-1.79;100.00;98823.00;4243855;82;28622;-80
2020/12/09 19:53:17;;;;;;;61.92;22.73;;;;;;;-1.76;100.00;98822.20;4246763;82;43709;-85
2020/12/09 19:59:19;;;;;;;66.87;24.12;;;;;;;-1.88;100.00;98816.87;4244610;82;43737;-85
2020/12/09 20:05:23;;;;;;;59.73;23.50;;;;;;;-1.92;100.00;98832.66;4239249;83;28629;-85
2020/12/09 20:11:26;;;;;;;54.58;21.17;;;;;;;-1.80;100.00;98838.00;4206108;83;44658;-86
2020/12/09 20:17:29;;;;;;;62.45;23.12;;;;;;;-1.79;100.00;98840.13;4224004;82;42903;-86
2020/12/09 20:23:35;;;;;;;67.37;23.92;;;;;;;-1.88;100.00;98846.66;4255259;82;43752;-84
2020/12/09 20:29:35;;;;;;;60.25;23.45;;;;;;;-2.01;100.00;98841.83;4270510;82;44134;-85
2020/12/09 20:35:39;;;;;;;62.38;23.60;;;;;;;-1.92;100.00;98842.70;4249997;82;44461;-84
2020/12/09 20:41:41;;;;;;;63.92;23.45;;;;;;;-1.88;100.00;98824.77;4197791;82;43753;-83
2020/12/09 20:47:47;;;;;;;57.67;22.60;;;;;;;-1.85;100.00;98836.31;4200768;82;44127;-85
2020/12/09 20:53:52;;;;;;;64.37;23.95;;;;;;;-1.89;100.00;98815.22;4209583;82;43732;-87
2020/12/09 20:59:55;;;;;;;56.60;21.75;;;;;;;-2.05;100.00;98818.07;4227520;82;28617;-85
2020/12/09 21:06:02;;;;;;;71.07;25.50;;;;;;;-2.02;100.00;98812.52;4196479;82;28586;-86
2020/12/09 21:12:07;;;;;;;60.58;21.73;;;;;;;-1.90;100.00;98817.02;4196055;82;28541;-83
2020/12/09 21:18:11;;;;;;;61.73;23.57;;;;;;;-1.90;100.00;98812.25;4230817;82;44094;-84
2020/12/09 21:24:13;;;;;;;57.15;22.75;;;;;;;-1.87;100.00;98803.55;4198381;82;44085;-82
2020/12/09 21:30:16;;;;;;;66.17;23.65;;;;;;;-1.87;100.00;98810.61;4198250;82;43793;-81
2020/12/09 21:36:23;;;;;;;54.75;21.80;;;;;;;-1.89;100.00;98806.80;4206688;82;44087;-79
2020/12/09 21:42:26;;;;;;;53.40;22.42;;;;;;;-2.06;100.00;98805.08;4183051;83;44130;-80
2020/12/09 21:48:28;;;;;;;55.83;21.55;;;;;;;-1.97;100.00;98799.69;4230290;82;44105;-83
2020/12/09 21:54:32;;;;;;;57.05;21.80;;;;;;;-2.06;100.00;98802.44;4208974;82;44118;-82
2020/12/09 22:00:35;;;;;;;56.98;22.20;;;;;;;-2.08;100.00;98785.94;4158109;82;44091;-83
2020/12/09 22:06:37;;;;;;;61.23;22.05;;;;;;;-1.97;100.00;98793.61;4213755;82;44257;-82
2020/12/09 22:12:40;;;;;;;51.63;19.42;;;;;;;-2.01;100.00;98785.18;4225304;82;43559;-83
2020/12/09 22:18:43;;;;;;;48.85;19.45;;;;;;;-2.19;100.00;98790.99;4219724;81;43776;-82
2020/12/09 22:24:46;;;;;;;45.10;18.10;;;;;;;-2.23;100.00;98783.08;4252707;82;43794;-80
2020/12/09 22:30:48;;;;;;;49.60;19.20;;;;;;;-2.14;100.00;98768.47;4280764;81;43736;-82
2020/12/09 22:36:50;;;;;;;52.10;20.82;;;;;;;-2.13;100.00;98755.62;4276802;81;44321;-81
2020/12/09 22:42:54;;;;;;;48.08;18.82;;;;;;;-2.18;100.00;98742.12;4292793;81;43732;-81
2020/12/09 22:48:56;;;;;;;42.90;17.48;;;;;;;-2.18;100.00;98726.79;4402006;78;43678;-81
2020/12/09 22:54:59;;;;;;;48.52;19.12;;;;;;;-2.04;100.00;98714.34;4370975;79;43735;-83
2020/12/09 23:01:18;;;;;;;47.85;17.98;;;;;;;-1.90;100.00;98710.80;4310909;80;44102;-82
2020/12/09 23:07:21;;;;;;;40.63;17.73;;;;;;;-1.85;100.00;98701.42;4276299;81;44468;-80
2020/12/09 23:13:24;;;;;;;51.25;20.72;;;;;;;-1.83;100.00;98703.88;4229166;82;43658;-84
2020/12/09 23:19:26;;;;;;;55.23;22.45;;;;;;;-1.99;100.00;98692.78;4216373;82;44096;-82
2020/12/09 23:25:28;;;;;;;54.53;21.30;;;;;;;-2.01;100.00;98696.08;4265317;82;44118;-83
2020/12/09 23:31:30;;;;;;;55.17;21.65;;;;;;;-2.13;100.00;98695.05;4255825;82;44119;-82
2020/12/09 23:37:35;;;;;;;50.95;20.27;;;;;;;-2.24;100.00;98692.69;4227411;82;44078;-83
2020/12/09 23:43:37;;;;;;;56.57;21.57;;;;;;;-2.23;100.00;98684.31;4269443;82;28547;-82
2020/12/09 23:49:40;;;;;;;57.88;22.40;;;;;;;-2.21;100.00;98686.28;4270386;82;44170;-83
2020/12/09 23:55:42;;;;;;;52.60;20.12;;;;;;;-2.27;100.00;98685.91;4275047;81;44161;-82
